createdAt,value
2022-09-25T00:03:21.411Z,65.92
2022-09-25T00:08:42.445Z,65.86
2022-09-25T00:14:03.742Z,65.84
2022-09-25T00:19:42.847Z,66.33
2022-09-25T00:25:03.960Z,66.43
2022-09-25T00:30:24.858Z,66.33
2022-09-25T00:35:45.398Z,66.73
2022-09-25T00:41:07.643Z,66.90
2022-09-25T00:46:28.289Z,67.00
2022-09-25T00:51:56.640Z,67.16
2022-09-25T00:57:22.151Z,67.18
2022-09-25T01:02:49.063Z,67.44
2022-09-25T01:08:13.413Z,66.72
2022-09-25T01:13:34.281Z,66.91
2022-09-25T01:19:31.717Z,67.07
2022-09-25T01:25:12.229Z,67.37
2022-09-25T01:30:36.751Z,67.75
2022-09-25T01:36:07.649Z,67.46
2022-09-25T01:41:35.955Z,67.01
2022-09-25T01:47:04.872Z,67.07
2022-09-25T01:52:33.075Z,67.22
2022-09-25T01:58:03.059Z,67.16
2022-09-25T02:03:33.153Z,67.01
2022-09-25T02:08:58.012Z,66.83
2022-09-25T02:14:32.068Z,66.81
2022-09-25T02:20:11.660Z,67.21
2022-09-25T02:25:43.922Z,67.48
2022-09-25T02:31:10.329Z,67.22
2022-09-25T02:36:32.418Z,66.79
2022-09-25T02:42:11.296Z,66.83
2022-09-25T02:47:35.163Z,66.37
2022-09-25T02:53:11.197Z,66.63
2022-09-25T02:58:52.427Z,66.93
2022-09-25T03:04:16.676Z,67.30
2022-09-25T03:09:42.026Z,66.59
2022-09-25T03:15:02.799Z,66.48
2022-09-25T03:20:24.762Z,66.52
2022-09-25T03:25:49.949Z,66.88
2022-09-25T03:31:12.090Z,67.17
2022-09-25T03:36:34.166Z,66.84
2022-09-25T03:41:54.859Z,67.01
2022-09-25T03:47:15.629Z,66.45
2022-09-25T03:52:39.293Z,66.51
2022-09-25T03:57:59.993Z,66.82
2022-09-25T04:03:22.558Z,66.77
2022-09-25T04:08:43.454Z,66.63
2022-09-25T04:14:05.197Z,67.17
2022-09-25T04:19:26.740Z,66.51
2022-09-25T04:24:50.315Z,66.87
2022-09-25T04:30:11.661Z,66.79
2022-09-25T04:35:32.764Z,67.00
2022-09-25T04:40:53.858Z,67.34
2022-09-25T04:46:21.019Z,67.87
2022-09-25T04:51:42.236Z,67.17
2022-09-25T04:57:02.883Z,67.68
2022-09-25T05:02:28.134Z,67.76
2022-09-25T05:07:57.449Z,67.55
2022-09-25T05:13:18.776Z,67.95
2022-09-25T05:18:39.716Z,67.61
2022-09-25T05:24:00.475Z,67.76
2022-09-25T05:29:21.222Z,67.69
2022-09-25T05:34:41.813Z,67.73
2022-09-25T05:40:02.624Z,67.61
2022-09-25T05:45:23.971Z,67.60
2022-09-25T05:50:44.910Z,67.74
2022-09-25T05:56:06.142Z,68.02
2022-09-25T06:01:26.943Z,67.66
2022-09-25T06:06:47.646Z,67.94
2022-09-25T06:12:08.584Z,67.46
2022-09-25T06:17:29.190Z,67.43
2022-09-25T06:22:56.988Z,67.37
2022-09-25T06:28:17.404Z,67.84
2022-09-25T06:33:38.307Z,68.07
2022-09-25T06:38:59.077Z,68.34
2022-09-25T06:44:21.283Z,68.76
2022-09-25T06:49:42.190Z,68.91
2022-09-25T06:55:03.029Z,68.59
2022-09-25T07:00:23.735Z,68.80
2022-09-25T07:05:47.301Z,69.03
2022-09-25T07:11:11.499Z,68.78
2022-09-25T07:16:34.413Z,68.56
2022-09-25T07:21:55.522Z,68.67
2022-09-25T07:27:16.536Z,69.25
2022-09-25T07:32:38.312Z,68.83
2022-09-25T07:37:58.998Z,68.90
2022-09-25T07:43:19.479Z,68.25
2022-09-25T07:48:40.581Z,68.45
2022-09-25T07:54:01.284Z,68.73
2022-09-25T07:59:22.184Z,68.51
2022-09-25T08:04:42.811Z,68.53
2022-09-25T08:10:03.847Z,68.32
2022-09-25T08:15:25.521Z,68.15
2022-09-25T08:20:46.811Z,68.66
2022-09-25T08:26:08.036Z,68.51
2022-09-25T08:31:28.883Z,68.57
2022-09-25T08:36:50.942Z,68.50
2022-09-25T08:42:20.183Z,68.53
2022-09-25T08:48:00.040Z,68.06
2022-09-25T08:53:25.912Z,68.42
2022-09-25T08:59:09.378Z,68.72
2022-09-25T09:04:33.511Z,68.47
2022-09-25T09:10:02.341Z,68.72
2022-09-25T09:15:40.661Z,68.65
2022-09-25T09:21:23.084Z,68.74
2022-09-25T09:26:58.085Z,68.66
2022-09-25T09:32:53.980Z,68.85
2022-09-25T09:38:21.021Z,68.78
2022-09-25T09:44:23.945Z,68.31
2022-09-25T09:49:53.580Z,68.19
2022-09-25T09:55:23.440Z,67.66
2022-09-25T10:00:51.866Z,67.93
2022-09-25T10:06:20.409Z,67.11
2022-09-25T10:11:48.727Z,67.35
2022-09-25T10:17:11.607Z,67.54
2022-09-25T10:22:40.485Z,66.99
2022-09-25T10:28:22.370Z,66.49
2022-09-25T10:33:43.358Z,66.37
2022-09-25T10:39:31.514Z,66.57
2022-09-25T10:44:46.318Z,66.99
2022-09-25T10:50:13.683Z,66.85
2022-09-25T10:55:44.019Z,67.04
2022-09-25T11:01:09.272Z,67.15
2022-09-25T11:06:34.795Z,66.70
2022-09-25T11:12:15.289Z,66.82
2022-09-25T11:17:44.122Z,66.22
2022-09-25T11:23:20.002Z,66.19
2022-09-25T11:28:57.753Z,66.55
2022-09-25T11:34:21.419Z,66.37
2022-09-25T11:40:27.253Z,66.64
2022-09-25T11:46:04.128Z,66.74
2022-09-25T11:51:56.919Z,66.50
2022-09-25T11:57:45.290Z,66.31
2022-09-25T12:03:15.677Z,66.60
2022-09-25T12:08:50.523Z,66.29
2022-09-25T12:14:38.622Z,66.23
2022-09-25T12:19:59.425Z,65.82
2022-09-25T12:25:41.802Z,66.06
2022-09-25T12:31:30.802Z,66.09
2022-09-25T12:37:26.688Z,66.52
2022-09-25T12:43:01.924Z,66.43
2022-09-25T12:48:31.606Z,66.49
2022-09-25T12:53:59.922Z,66.03
2022-09-25T12:59:33.781Z,65.84
2022-09-25T13:05:21.703Z,66.09
2022-09-25T13:10:49.119Z,65.82
2022-09-25T13:16:09.884Z,66.03
2022-09-25T13:21:35.930Z,66.03
2022-09-25T13:27:03.408Z,66.14
2022-09-25T13:32:34.557Z,65.52
2022-09-25T13:38:08.979Z,65.59
2022-09-25T13:43:30.575Z,65.79
2022-09-25T13:48:52.929Z,65.90
2022-09-25T13:54:13.608Z,65.92
2022-09-25T13:59:38.491Z,65.55
2022-09-25T14:05:00.150Z,65.32
2022-09-25T14:10:22.813Z,65.49
2022-09-25T14:15:45.103Z,65.79
2022-09-25T14:21:09.713Z,65.54
2022-09-25T14:26:30.728Z,65.68
2022-09-25T14:32:42.844Z,65.07
2022-09-25T14:38:36.429Z,65.08
2022-09-25T14:44:23.979Z,65.23
2022-09-25T14:49:50.886Z,65.56
2022-09-25T14:55:20.564Z,66.05
2022-09-25T15:00:48.330Z,65.91
2022-09-25T15:06:13.962Z,66.19
2022-09-25T15:11:42.760Z,66.16
2022-09-25T15:17:22.789Z,66.37
2022-09-25T15:22:50.338Z,66.34
2022-09-25T15:28:15.659Z,66.68
2022-09-25T15:33:38.280Z,66.82
2022-09-25T15:39:01.040Z,67.09
2022-09-25T15:44:26.473Z,66.92
2022-09-25T15:49:48.186Z,67.18
2022-09-25T15:55:17.128Z,66.84
2022-09-25T16:01:36.738Z,67.20
2022-09-25T16:06:57.919Z,67.12
2022-09-25T16:12:27.483Z,67.16
2022-09-25T16:17:48.466Z,67.22
2022-09-25T16:23:28.317Z,67.39
2022-09-25T16:29:12.401Z,67.46
2022-09-25T16:34:37.366Z,67.51
2022-09-25T16:40:25.260Z,67.05
2022-09-25T16:46:00.072Z,67.11
2022-09-25T16:51:22.805Z,67.31
2022-09-25T16:56:46.496Z,66.80
2022-09-25T17:02:22.545Z,67.07
2022-09-25T17:07:45.905Z,66.90
2022-09-25T17:13:06.979Z,67.17
2022-09-25T17:18:27.813Z,67.06
2022-09-25T17:23:48.695Z,66.69
2022-09-25T17:29:09.807Z,67.26
2022-09-25T17:34:30.878Z,67.61
2022-09-25T17:39:51.646Z,67.31
2022-09-25T17:45:45.362Z,67.17
2022-09-25T17:51:16.330Z,67.41
2022-09-25T17:56:39.913Z,68.96
2022-09-25T18:02:01.275Z,67.49
2022-09-25T18:07:23.236Z,67.26
2022-09-25T18:12:43.936Z,67.45
2022-09-25T18:18:04.963Z,67.89
2022-09-25T18:23:25.897Z,67.85
2022-09-25T18:28:46.841Z,67.96
2022-09-25T18:34:10.146Z,68.07
2022-09-25T18:39:31.073Z,67.85
2022-09-25T18:44:51.855Z,68.15
2022-09-25T18:50:16.749Z,67.97
2022-09-25T18:55:43.673Z,68.50
2022-09-25T19:01:06.924Z,68.46
2022-09-25T19:06:28.040Z,68.62
2022-09-25T19:11:48.540Z,68.39
2022-09-25T19:17:09.783Z,68.79
2022-09-25T19:22:30.391Z,69.11
2022-09-25T19:27:51.178Z,68.86
2022-09-25T19:33:11.690Z,68.63
2022-09-25T19:38:34.173Z,68.80
2022-09-25T19:43:59.158Z,69.28
2022-09-25T19:49:20.452Z,69.33
2022-09-25T19:54:41.411Z,69.50
2022-09-25T20:00:02.173Z,69.62
2022-09-25T20:05:29.360Z,69.86
2022-09-25T20:10:50.244Z,69.62
2022-09-25T20:16:13.738Z,69.56
2022-09-25T20:21:40.159Z,69.52
2022-09-25T20:27:00.987Z,68.98
2022-09-25T20:32:21.849Z,69.33
2022-09-25T20:37:45.511Z,69.39
2022-09-25T20:43:06.363Z,69.53
2022-09-25T20:48:31.984Z,69.32
2022-09-25T20:53:56.949Z,69.46
2022-09-25T20:59:20.211Z,69.60
2022-09-25T21:04:42.129Z,69.39
2022-09-25T21:10:03.676Z,68.99
2022-09-25T21:15:27.945Z,68.87
2022-09-25T21:20:48.825Z,69.37
2022-09-25T21:26:12.388Z,69.14
2022-09-25T21:31:36.720Z,68.93
2022-09-25T21:36:57.859Z,69.08
2022-09-25T21:42:18.438Z,68.90
2022-09-25T21:47:39.911Z,69.50
2022-09-25T21:53:00.519Z,69.09
2022-09-25T21:58:21.166Z,69.30
2022-09-25T22:03:43.958Z,68.93
2022-09-25T22:09:07.900Z,69.11
2022-09-25T22:14:28.778Z,68.97
2022-09-25T22:19:49.991Z,68.92
2022-09-25T22:25:11.077Z,69.13
2022-09-25T22:30:32.099Z,69.28
2022-09-25T22:35:59.495Z,69.42
2022-09-25T22:41:20.296Z,69.58
2022-09-25T22:46:43.235Z,69.58
2022-09-25T22:52:05.043Z,69.41
2022-09-25T22:57:25.718Z,69.30
2022-09-25T23:02:46.320Z,69.73
2022-09-25T23:08:08.231Z,69.77
2022-09-25T23:13:29.192Z,69.61
2022-09-25T23:18:49.937Z,70.06
2022-09-25T23:24:16.451Z,69.69
2022-09-25T23:29:37.334Z,69.56
2022-09-25T23:34:58.070Z,69.88
2022-09-25T23:40:18.804Z,69.90
2022-09-25T23:45:42.366Z,69.86
2022-09-25T23:51:03.596Z,70.25
2022-09-25T23:56:27.000Z,70.24
